Time;durP1;ratioP1;P1;durP2;ratioP2;P2;SDS_P1;SDS_P2;PMS_P1;PMS_P2;Temp;Humidity;BMP_temperature;BMP_pressure;BME280_temperature;BME280_humidity;BME280_pressure;Samples;Min_cycle;Max_cycle;Signal;HPM_P1;HPM_P2
2023/09/24 00:02:06;;;;;;;18.53;7.33;;;;;;;24.98;64.33;99217.75;5093253;28;20195;-68
2023/09/24 00:04:33;;;;;;;14.83;6.73;;;;;;;25.00;64.63;99220.19;5092834;28;20203;-68
2023/09/24 00:07:00;;;;;;;17.80;6.17;;;;;;;25.00;64.54;99218.25;5092940;28;20663;-69
2023/09/24 00:09:28;;;;;;;9.00;5.90;;;;;;;24.99;64.65;99216.66;5073027;28;20270;-70
2023/09/24 00:11:56;;;;;;;10.50;6.27;;;;;;;24.95;65.18;99218.34;5072838;28;20196;-70
2023/09/24 00:14:25;;;;;;;8.80;6.33;;;;;;;24.96;65.47;99219.94;5072331;28;20592;-67
2023/09/24 00:16:52;;;;;;;12.43;5.97;;;;;;;24.88;66.18;99222.53;5072919;28;20275;-69
2023/09/24 00:19:18;;;;;;;13.77;5.90;;;;;;;24.86;66.23;99225.56;5072336;28;20196;-68
2023/09/24 00:21:46;;;;;;;11.03;5.87;;;;;;;24.79;66.49;99206.09;5072392;28;20195;-69
2023/09/24 00:24:17;;;;;;;11.77;6.80;;;;;;;24.76;66.77;99208.59;5072531;28;20278;-69
2023/09/24 00:26:45;;;;;;;9.23;6.37;;;;;;;24.75;67.36;99213.22;5072367;28;20647;-69
2023/09/24 00:29:12;;;;;;;12.27;6.40;;;;;;;24.71;67.54;99222.25;5072461;28;20277;-69
2023/09/24 00:31:39;;;;;;;12.97;6.67;;;;;;;24.66;67.69;99217.69;5072427;28;20245;-68
2023/09/24 00:34:05;;;;;;;6.83;6.10;;;;;;;24.61;68.12;99216.97;5071048;28;20223;-68
2023/09/24 00:36:33;;;;;;;12.33;6.13;;;;;;;24.59;68.08;99230.00;5072287;28;20192;-68
2023/09/24 00:39:00;;;;;;;10.27;6.23;;;;;;;24.60;68.42;99232.47;5071730;28;20230;-68
2023/09/24 00:41:27;;;;;;;13.03;5.80;;;;;;;24.57;68.58;99227.59;5070855;28;20646;-68
2023/09/24 00:43:56;;;;;;;13.80;6.90;;;;;;;24.54;68.23;99233.59;5072323;28;20196;-68
2023/09/24 00:46:24;;;;;;;16.03;6.57;;;;;;;24.55;68.25;99240.63;5071964;28;20736;-68
2023/09/24 00:48:52;;;;;;;15.37;6.87;;;;;;;24.50;68.84;99238.00;5071852;28;20240;-69
2023/09/24 00:51:21;;;;;;;9.87;5.93;;;;;;;24.43;69.13;99234.03;5072250;28;20199;-69
2023/09/24 00:53:51;;;;;;;10.13;7.23;;;;;;;24.42;69.04;99241.38;5072295;28;20255;-68
2023/09/24 00:56:18;;;;;;;9.97;6.43;;;;;;;24.33;69.51;99243.13;5071844;28;20196;-68
2023/09/24 00:58:50;;;;;;;14.57;6.53;;;;;;;24.37;69.37;99236.00;5071762;28;20217;-69
2023/09/24 01:01:19;;;;;;;7.17;6.10;;;;;;;24.38;69.17;99240.34;5079590;28;20605;-68
2023/09/24 01:03:48;;;;;;;11.83;6.63;;;;;;;24.35;69.41;99240.13;5092229;28;20195;-68
2023/09/24 01:06:15;;;;;;;9.73;6.43;;;;;;;24.32;69.69;99246.94;5091965;28;20749;-67
2023/09/24 01:08:42;;;;;;;11.27;5.93;;;;;;;24.27;69.83;99249.72;5091793;28;20198;-69
2023/09/24 01:11:10;;;;;;;9.30;6.77;;;;;;;24.21;70.09;99259.00;5091949;28;20689;-69
2023/09/24 01:13:38;;;;;;;8.87;6.90;;;;;;;24.15;70.24;99252.03;5091716;28;20598;-69
2023/09/24 01:16:06;;;;;;;11.77;7.00;;;;;;;24.18;70.36;99254.16;5091840;28;20677;-69
2023/09/24 01:18:36;;;;;;;19.73;6.87;;;;;;;24.20;70.37;99243.84;5091896;28;20277;-69
2023/09/24 01:21:05;;;;;;;10.43;6.87;;;;;;;24.20;70.26;99249.25;5092237;28;20266;-69
2023/09/24 01:23:36;;;;;;;7.77;6.07;;;;;;;24.12;70.46;99249.91;5091957;28;20201;-68
2023/09/24 01:26:03;;;;;;;10.40;6.70;;;;;;;24.07;70.80;99244.53;5090848;28;20244;-69
2023/09/24 01:28:30;;;;;;;12.23;6.87;;;;;;;24.08;70.53;99243.44;5092018;28;20194;-67
2023/09/24 01:30:58;;;;;;;11.80;6.87;;;;;;;23.96;70.86;99239.50;5091717;28;20734;-69
2023/09/24 01:33:24;;;;;;;11.13;6.60;;;;;;;24.02;70.94;99236.44;5091595;28;20275;-69
2023/09/24 01:35:51;;;;;;;11.97;7.17;;;;;;;24.04;70.69;99233.44;5091832;28;20194;-69
2023/09/24 01:38:18;;;;;;;9.50;6.20;;;;;;;24.04;70.67;99234.25;5091916;28;20256;-69
2023/09/24 01:40:46;;;;;;;10.53;6.90;;;;;;;23.87;71.51;99239.31;5091615;28;20223;-69
2023/09/24 01:43:14;;;;;;;9.50;6.70;;;;;;;23.92;71.63;99242.00;5091943;28;20202;-69
2023/09/24 01:45:41;;;;;;;11.20;6.67;;;;;;;23.97;71.38;99239.22;5091390;28;20251;-70
2023/09/24 01:48:08;;;;;;;12.30;6.47;;;;;;;24.02;71.39;99241.84;5094330;28;20259;-70
2023/09/24 01:50:36;;;;;;;10.97;6.50;;;;;;;24.03;70.67;99240.78;5094794;28;20220;-68
2023/09/24 01:53:04;;;;;;;11.80;7.23;;;;;;;23.99;71.33;99250.59;5095128;28;20194;-69
2023/09/24 01:55:31;;;;;;;9.83;6.83;;;;;;;23.99;70.92;99245.19;5095580;28;20198;-69
2023/09/24 01:58:00;;;;;;;8.03;6.40;;;;;;;24.00;71.25;99254.09;5095969;28;20190;-70
2023/09/24 02:00:27;;;;;;;8.70;6.27;;;;;;;23.99;71.18;99257.94;5095251;28;20205;-69
2023/09/24 02:02:56;;;;;;;11.63;6.63;;;;;;;23.92;71.11;99247.41;5095317;28;20194;-70
2023/09/24 02:05:23;;;;;;;10.73;7.07;;;;;;;23.93;70.80;99254.44;5095494;28;20202;-69
2023/09/24 02:07:51;;;;;;;7.67;6.77;;;;;;;23.78;71.28;99257.31;5088832;28;20226;-68
2023/09/24 02:10:19;;;;;;;12.57;6.23;;;;;;;23.78;71.43;99257.31;5075113;28;20203;-68
2023/09/24 02:12:47;;;;;;;10.33;6.53;;;;;;;23.71;71.81;99251.41;5074779;28;20251;-69
2023/09/24 02:15:18;;;;;;;10.57;6.60;;;;;;;23.75;71.73;99252.47;5074580;28;20717;-69
2023/09/24 02:17:48;;;;;;;11.33;6.80;;;;;;;23.74;71.72;99250.84;5074757;28;20662;-69
2023/09/24 02:20:25;;;;;;;13.70;7.70;;;;;;;23.73;71.72;99254.63;5074669;28;20187;-68
2023/09/24 02:22:53;;;;;;;14.23;6.73;;;;;;;23.65;71.92;99247.13;5075064;28;20190;-70
2023/09/24 02:25:20;;;;;;;13.97;7.37;;;;;;;23.65;72.05;99238.19;5074552;28;20651;-69
2023/09/24 02:27:49;;;;;;;13.07;7.10;;;;;;;23.64;71.85;99239.28;5074567;28;20274;-70
2023/09/24 02:30:17;;;;;;;14.73;6.67;;;;;;;23.50;72.15;99241.88;5074431;28;20573;-69
2023/09/24 02:32:44;;;;;;;13.60;7.27;;;;;;;23.53;72.19;99243.97;5074764;28;20259;-70
2023/09/24 02:35:12;;;;;;;7.73;6.17;;;;;;;23.60;72.23;99243.69;5074238;28;20704;-70
2023/09/24 02:37:39;;;;;;;8.23;6.60;;;;;;;23.59;71.81;99236.59;5074629;28;20198;-70
2023/09/24 02:40:11;;;;;;;12.87;6.97;;;;;;;23.75;71.05;99247.03;5074367;28;20199;-69
2023/09/24 02:42:38;;;;;;;13.07;7.37;;;;;;;23.65;71.19;99254.47;5074699;28;20681;-69
2023/09/24 02:45:07;;;;;;;14.50;8.07;;;;;;;23.67;71.21;99255.78;5073252;28;20282;-69
2023/09/24 02:47:35;;;;;;;13.70;8.00;;;;;;;23.57;71.50;99261.31;5074542;28;20515;-69
2023/09/24 02:50:04;;;;;;;17.13;8.40;;;;;;;23.52;71.87;99255.94;5074139;28;20197;-69
2023/09/24 02:52:33;;;;;;;11.43;7.47;;;;;;;23.50;72.04;99260.03;5074109;28;20189;-71
2023/09/24 02:55:00;;;;;;;16.93;8.00;;;;;;;23.49;71.99;99253.00;5074353;28;20226;-69
2023/09/24 02:57:27;;;;;;;14.37;8.03;;;;;;;23.48;71.99;99251.38;5074361;28;20189;-69
2023/09/24 02:59:53;;;;;;;12.67;7.60;;;;;;;23.50;72.01;99254.59;5072969;28;20194;-69
2023/09/24 03:02:20;;;;;;;13.23;8.10;;;;;;;23.49;72.18;99259.22;5073971;28;20193;-68
2023/09/24 03:04:48;;;;;;;12.03;7.17;;;;;;;23.43;72.29;99264.97;5073906;28;20196;-68
2023/09/24 03:07:15;;;;;;;13.33;7.37;;;;;;;23.30;72.90;99261.03;5075751;28;20195;-68
2023/09/24 03:09:42;;;;;;;12.40;7.73;;;;;;;23.31;72.85;99256.38;5094347;28;20194;-66
2023/09/24 03:12:09;;;;;;;13.67;7.93;;;;;;;23.30;73.02;99255.59;5094478;28;20300;-70
2023/09/24 03:14:35;;;;;;;14.53;8.03;;;;;;;23.28;73.01;99252.34;5093898;28;20217;-69
2023/09/24 03:17:02;;;;;;;12.87;7.00;;;;;;;23.18;73.19;99257.84;5093868;28;20738;-69
2023/09/24 03:19:29;;;;;;;11.90;7.57;;;;;;;23.12;73.72;99256.25;5094189;28;20192;-69
2023/09/24 03:21:57;;;;;;;10.43;7.63;;;;;;;23.06;73.81;99273.66;5093854;28;20572;-69
2023/09/24 03:24:24;;;;;;;19.63;7.90;;;;;;;22.96;74.37;99271.03;5093763;28;20196;-69
2023/09/24 03:26:51;;;;;;;11.20;6.97;;;;;;;23.01;74.51;99270.16;5093876;28;20204;-70
2023/09/24 03:29:19;;;;;;;8.67;7.60;;;;;;;23.08;74.52;99274.16;5093711;28;20198;-70
2023/09/24 03:31:46;;;;;;;12.60;7.10;;;;;;;23.14;74.00;99281.16;5093397;28;20193;-70
2023/09/24 03:34:13;;;;;;;10.27;7.23;;;;;;;23.15;73.89;99280.06;5093815;28;20221;-70
2023/09/24 03:36:41;;;;;;;10.60;7.73;;;;;;;23.22;73.79;99285.19;5093760;28;20551;-70
2023/09/24 03:39:09;;;;;;;16.83;8.53;;;;;;;23.22;73.57;99275.19;5093857;28;20209;-70
2023/09/24 03:41:36;;;;;;;17.30;7.70;;;;;;;23.20;73.52;99265.72;5093402;28;20224;-69
2023/09/24 03:44:03;;;;;;;14.13;7.57;;;;;;;23.19;73.79;99275.72;5093323;28;20194;-70
2023/09/24 03:46:30;;;;;;;11.17;8.33;;;;;;;23.13;73.76;99281.44;5093429;28;20190;-70
2023/09/24 03:48:56;;;;;;;10.97;7.80;;;;;;;23.10;74.09;99282.81;5093302;28;20258;-70
2023/09/24 03:51:23;;;;;;;8.17;7.47;;;;;;;23.02;74.22;99279.91;5093386;28;20255;-69
2023/09/24 03:53:50;;;;;;;12.30;7.67;;;;;;;22.92;74.59;99274.56;5093298;28;20747;-70
2023/09/24 03:56:18;;;;;;;15.70;7.50;;;;;;;22.85;75.17;99274.88;5093034;28;20279;-69
2023/09/24 03:58:45;;;;;;;9.13;6.73;;;;;;;22.79;75.32;99281.41;5093358;28;20197;-70
2023/09/24 04:01:12;;;;;;;8.33;7.43;;;;;;;22.79;75.51;99281.41;5093376;28;20258;-70
2023/09/24 04:03:39;;;;;;;12.00;7.57;;;;;;;22.62;75.92;99280.97;5093320;28;20275;-70
2023/09/24 04:06:11;;;;;;;15.97;7.93;;;;;;;22.61;76.33;99278.53;5093330;28;20279;-70
2023/09/24 04:08:38;;;;;;;11.83;7.53;;;;;;;22.64;76.23;99284.22;5079821;28;20190;-71
2023/09/24 04:11:08;;;;;;;10.90;7.27;;;;;;;22.66;76.29;99284.72;5072146;28;20599;-70
2023/09/24 04:13:37;;;;;;;11.50;8.67;;;;;;;22.65;76.05;99285.81;5072882;28;20193;-70
2023/09/24 04:16:09;;;;;;;11.03;7.17;;;;;;;22.61;76.14;99284.75;5072736;28;20225;-70
2023/09/24 04:18:37;;;;;;;9.50;7.93;;;;;;;22.57;76.25;99283.69;5072383;28;20246;-71
2023/09/24 04:21:04;;;;;;;8.73;7.80;;;;;;;22.59;76.14;99284.25;5072392;28;20749;-70
2023/09/24 04:23:30;;;;;;;13.57;8.30;;;;;;;22.62;76.26;99291.00;5072339;28;20190;-71
2023/09/24 04:25:57;;;;;;;13.00;8.00;;;;;;;22.63;76.16;99293.44;5072814;28;20196;-71
2023/09/24 04:28:24;;;;;;;10.17;7.43;;;;;;;22.60;76.65;99299.41;5072587;28;20189;-68
2023/09/24 04:30:52;;;;;;;18.77;8.00;;;;;;;22.48;76.86;99304.31;5072394;28;20243;-70
2023/09/24 04:33:19;;;;;;;12.53;7.37;;;;;;;22.55;76.75;99299.44;5072533;28;20259;-69
2023/09/24 04:35:46;;;;;;;9.67;7.60;;;;;;;22.67;76.75;99305.28;5071963;28;20572;-69
2023/09/24 04:38:14;;;;;;;10.50;7.40;;;;;;;22.80;76.16;99315.53;5072530;28;20203;-70
2023/09/24 04:40:41;;;;;;;10.10;6.60;;;;;;;22.79;75.68;99323.94;5072206;28;20227;-69
2023/09/24 04:43:08;;;;;;;8.43;6.80;;;;;;;22.87;75.63;99326.84;5072105;28;20184;-70
2023/09/24 04:45:36;;;;;;;9.67;7.63;;;;;;;22.96;74.96;99325.19;5072016;28;20603;-69
2023/09/24 04:48:05;;;;;;;12.43;7.43;;;;;;;23.09;74.92;99329.19;5071882;28;20565;-69
2023/09/24 04:50:32;;;;;;;8.07;7.20;;;;;;;23.20;74.61;99326.13;5072213;28;20279;-69
2023/09/24 04:52:59;;;;;;;16.67;7.63;;;;;;;23.36;74.17;99338.50;5072158;28;20284;-70
2023/09/24 04:55:26;;;;;;;13.30;7.77;;;;;;;23.51;73.27;99332.97;5071988;28;20222;-69
2023/09/24 04:57:54;;;;;;;8.00;7.20;;;;;;;23.64;72.72;99348.56;5071860;28;20642;-69
2023/09/24 05:00:21;;;;;;;11.10;6.57;;;;;;;23.86;72.07;99351.66;5071769;28;20284;-70
2023/09/24 05:02:48;;;;;;;10.93;7.30;;;;;;;24.08;71.50;99349.28;5071740;28;20618;-69
2023/09/24 05:05:16;;;;;;;12.60;6.63;;;;;;;24.34;71.09;99350.63;5072091;28;20195;-69
2023/09/24 05:07:43;;;;;;;8.97;6.07;;;;;;;24.55;69.61;99359.38;5077301;28;20247;-70
2023/09/24 05:10:10;;;;;;;12.00;7.20;;;;;;;24.76;68.21;99364.28;5090688;28;20215;-70
2023/09/24 05:12:37;;;;;;;14.70;7.10;;;;;;;25.02;68.20;99372.09;5091686;28;20193;-68
2023/09/24 05:15:04;;;;;;;12.53;7.07;;;;;;;25.28;66.93;99367.94;5091433;28;20294;-64
2023/09/24 05:17:33;;;;;;;12.83;6.63;;;;;;;25.57;65.56;99371.31;5091766;28;20635;-64
2023/09/24 05:20:00;;;;;;;10.53;6.67;;;;;;;25.86;65.32;99358.31;5090769;28;20188;-64
2023/09/24 05:22:28;;;;;;;7.30;6.60;;;;;;;26.25;64.17;99361.44;5080030;28;20559;-64
2023/09/24 05:24:55;;;;;;;11.93;7.23;;;;;;;26.28;61.93;99366.28;5080341;28;20230;-65
2023/09/24 05:27:22;;;;;;;8.13;6.63;;;;;;;26.35;60.72;99383.03;5080711;28;20265;-64
2023/09/24 05:29:50;;;;;;;15.73;7.53;;;;;;;26.25;61.92;99372.34;5081003;28;20248;-64
2023/09/24 05:32:17;;;;;;;9.13;6.60;;;;;;;26.44;61.46;99378.50;5081973;28;20184;-64
2023/09/24 05:34:44;;;;;;;10.90;6.47;;;;;;;26.32;61.26;99383.63;5078509;28;20211;-64
2023/09/24 05:37:11;;;;;;;8.77;6.73;;;;;;;26.24;61.34;99381.59;5071753;28;20249;-64
2023/09/24 05:39:39;;;;;;;11.10;6.87;;;;;;;26.32;61.65;99373.53;5071699;28;20200;-66
2023/09/24 05:42:06;;;;;;;10.10;6.63;;;;;;;26.48;61.25;99382.22;5071557;28;20231;-67
2023/09/24 05:44:33;;;;;;;11.93;6.53;;;;;;;26.80;60.41;99380.25;5071655;28;20211;-68
2023/09/24 05:47:00;;;;;;;9.33;6.37;;;;;;;27.15;58.89;99392.31;5071634;28;20187;-67
2023/09/24 05:49:27;;;;;;;9.03;6.50;;;;;;;27.48;57.62;99393.78;5071574;28;20282;-67
2023/09/24 05:51:54;;;;;;;11.07;6.53;;;;;;;27.56;56.84;99387.59;5071535;28;20256;-67
2023/09/24 05:54:21;;;;;;;10.33;6.63;;;;;;;27.62;56.25;99397.25;5080758;28;20188;-68
2023/09/24 05:56:49;;;;;;;13.03;6.60;;;;;;;27.44;57.48;99400.97;5090495;28;20236;-69
2023/09/24 05:59:15;;;;;;;15.07;7.63;;;;;;;27.53;56.54;99399.09;5089377;28;20688;-67
2023/09/24 06:01:42;;;;;;;11.20;7.10;;;;;;;27.52;56.91;99400.22;5089740;28;20245;-68
2023/09/24 06:04:09;;;;;;;8.83;6.20;;;;;;;27.54;56.04;99406.16;5088829;28;20274;-67
2023/09/24 06:06:36;;;;;;;10.90;6.87;;;;;;;27.34;57.02;99399.28;5088855;28;20199;-69
2023/09/24 06:09:08;;;;;;;12.93;6.70;;;;;;;27.42;56.41;99389.53;5079914;28;20587;-69
2023/09/24 06:11:35;;;;;;;8.33;7.30;;;;;;;27.59;56.22;99404.13;5085606;28;20184;-68
2023/09/24 06:14:08;;;;;;;8.77;6.97;;;;;;;27.75;55.44;99407.31;5086670;28;20279;-68
2023/09/24 06:16:35;;;;;;;8.53;6.53;;;;;;;27.94;54.81;99416.16;5090846;28;20212;-66
2023/09/24 06:19:02;;;;;;;7.47;6.57;;;;;;;28.09;54.41;99407.59;5080528;28;20196;-67
2023/09/24 06:21:28;;;;;;;8.70;6.77;;;;;;;28.26;53.73;99413.94;5071144;28;20253;-67
2023/09/24 06:23:55;;;;;;;11.43;6.67;;;;;;;28.26;53.64;99410.41;5070862;28;20194;-68
2023/09/24 06:26:22;;;;;;;7.97;5.90;;;;;;;28.48;52.78;99418.56;5071313;28;20195;-67
2023/09/24 06:28:49;;;;;;;12.90;6.97;;;;;;;28.68;51.97;99421.56;5070786;28;20196;-66
2023/09/24 06:31:17;;;;;;;10.63;6.60;;;;;;;28.81;52.29;99426.13;5078742;28;20237;-66
2023/09/24 06:33:43;;;;;;;8.07;6.40;;;;;;;28.85;51.69;99429.03;5072403;28;20221;-67
2023/09/24 06:36:10;;;;;;;10.67;5.87;;;;;;;29.00;51.37;99429.41;5073756;28;20297;-66
2023/09/24 06:38:37;;;;;;;12.27;6.43;;;;;;;29.13;51.07;99433.16;5074223;28;20192;-67
2023/09/24 06:41:04;;;;;;;11.33;6.80;;;;;;;28.97;51.62;99431.97;5074065;28;20304;-66
2023/09/24 06:43:31;;;;;;;8.87;6.10;;;;;;;29.00;51.95;99426.69;5082644;28;20564;-66
2023/09/24 06:45:58;;;;;;;13.27;6.07;;;;;;;29.17;51.41;99423.19;5079224;28;20195;-67
2023/09/24 06:48:27;;;;;;;9.27;6.50;;;;;;;29.15;51.51;99417.22;5075844;28;20683;-67
2023/09/24 06:50:54;;;;;;;13.63;6.53;;;;;;;29.16;51.19;99405.16;5072109;28;20192;-66
2023/09/24 06:53:21;;;;;;;9.07;6.23;;;;;;;29.37;50.42;99410.81;5072144;28;20223;-67
2023/09/24 06:55:48;;;;;;;8.23;5.67;;;;;;;29.35;50.55;99419.34;5072454;28;20222;-67
2023/09/24 06:58:15;;;;;;;16.70;6.40;;;;;;;29.33;49.99;99410.66;5080551;28;20219;-74
2023/09/24 07:00:42;;;;;;;8.70;5.83;;;;;;;29.26;50.66;99412.25;5094154;28;20195;-73
2023/09/24 07:03:08;;;;;;;12.23;5.77;;;;;;;28.99;51.14;99411.38;5092814;28;20187;-73
2023/09/24 07:05:37;;;;;;;12.43;6.77;;;;;;;29.21;50.10;99413.22;5092777;28;20221;-74
2023/09/24 07:08:05;;;;;;;12.40;6.37;;;;;;;29.20;50.66;99411.59;5085853;28;20195;-74
2023/09/24 07:10:31;;;;;;;8.17;6.23;;;;;;;29.41;50.61;99403.56;5074081;28;20188;-74
2023/09/24 07:12:58;;;;;;;11.33;6.23;;;;;;;29.32;50.15;99425.47;5073660;28;20686;-74
2023/09/24 07:15:25;;;;;;;13.37;6.60;;;;;;;29.34;49.98;99423.22;5073566;28;20729;-73
2023/09/24 07:17:52;;;;;;;9.50;5.60;;;;;;;29.27;50.62;99428.34;5073840;28;20200;-74
2023/09/24 07:20:20;;;;;;;10.07;6.60;;;;;;;29.30;49.06;99424.97;5072198;28;20571;-74
2023/09/24 07:22:48;;;;;;;12.30;6.03;;;;;;;29.48;49.39;99412.91;5073352;28;20275;-73
2023/09/24 07:25:15;;;;;;;9.10;6.30;;;;;;;29.67;48.86;99429.06;5072989;28;20196;-74
2023/09/24 07:27:42;;;;;;;10.23;6.23;;;;;;;29.71;48.88;99419.88;5073368;28;20192;-74
2023/09/24 07:30:10;;;;;;;12.67;6.30;;;;;;;30.02;48.06;99409.53;5073273;28;20203;-74
2023/09/24 07:32:37;;;;;;;6.87;6.00;;;;;;;30.25;46.93;99423.88;5073009;28;20733;-73
2023/09/24 07:35:04;;;;;;;11.43;6.57;;;;;;;30.40;45.48;99418.66;5073243;28;20325;-73
2023/09/24 07:37:31;;;;;;;8.73;6.07;;;;;;;30.37;46.19;99419.31;5073548;28;20192;-73
2023/09/24 07:39:59;;;;;;;8.07;6.53;;;;;;;30.43;45.47;99418.00;5073178;28;20695;-73
2023/09/24 07:42:25;;;;;;;12.77;6.53;;;;;;;30.57;45.46;99412.28;5073542;28;20261;-73
2023/09/24 07:44:52;;;;;;;11.77;6.10;;;;;;;30.72;46.04;99415.34;5072634;28;20196;-73
2023/09/24 07:47:19;;;;;;;8.23;6.43;;;;;;;30.90;45.79;99414.09;5073455;28;20195;-73
2023/09/24 07:49:46;;;;;;;9.60;5.80;;;;;;;31.18;44.20;99412.50;5073244;28;20253;-73
2023/09/24 07:52:14;;;;;;;11.30;6.07;;;;;;;31.37;42.53;99415.63;5073370;28;20192;-77
2023/09/24 07:54:40;;;;;;;8.53;5.93;;;;;;;31.23;41.31;99409.56;5073143;28;20196;-74
2023/09/24 07:57:08;;;;;;;9.83;5.80;;;;;;;31.19;41.59;99397.63;5072803;28;20219;-74
2023/09/24 07:59:35;;;;;;;15.37;6.10;;;;;;;31.24;41.41;99400.19;5072728;28;20663;-74
2023/09/24 08:02:02;;;;;;;11.50;6.00;;;;;;;31.32;41.75;99388.34;5073190;28;20196;-73
2023/09/24 08:04:29;;;;;;;7.27;6.07;;;;;;;31.35;41.23;99392.38;5072961;28;20298;-73
2023/09/24 08:06:55;;;;;;;9.97;5.40;;;;;;;31.38;40.62;99399.94;5073015;28;20203;-74
2023/09/24 08:09:22;;;;;;;12.83;5.87;;;;;;;31.41;40.09;99399.28;5091989;28;20279;-74
2023/09/24 08:11:49;;;;;;;10.27;6.13;;;;;;;31.20;41.21;99393.72;5093295;28;20191;-74
2023/09/24 08:14:17;;;;;;;5.83;5.23;;;;;;;31.27;41.42;99387.75;5092799;28;20192;-74
2023/09/24 08:16:44;;;;;;;6.50;5.17;;;;;;;31.27;41.52;99385.81;5092905;28;20219;-74
2023/09/24 08:19:11;;;;;;;12.27;5.70;;;;;;;31.22;41.30;99380.50;5092722;28;20202;-74
2023/09/24 08:21:38;;;;;;;8.37;6.00;;;;;;;31.35;40.97;99384.94;5092936;28;20629;-75
2023/09/24 08:24:05;;;;;;;8.20;5.87;;;;;;;31.23;40.91;99384.88;5092826;28;20225;-75
2023/09/24 08:26:33;;;;;;;9.67;5.63;;;;;;;31.33;41.21;99376.25;5092850;28;20268;-74
2023/09/24 08:29:02;;;;;;;10.93;6.47;;;;;;;31.43;39.93;99375.84;5092613;28;20202;-74
2023/09/24 08:31:31;;;;;;;6.60;5.50;;;;;;;31.60;39.81;99381.16;5092477;28;20201;-75
2023/09/24 08:33:57;;;;;;;14.60;6.17;;;;;;;31.62;39.11;99378.91;5092155;28;20720;-74
2023/09/24 08:36:24;;;;;;;12.90;5.80;;;;;;;31.81;39.17;99370.97;5092506;28;20219;-74
2023/09/24 08:38:51;;;;;;;9.37;4.87;;;;;;;32.07;38.83;99374.28;5092437;28;20294;-75
2023/09/24 08:41:18;;;;;;;11.13;5.50;;;;;;;32.35;38.39;99377.22;5092475;28;20227;-74
2023/09/24 08:43:45;;;;;;;9.40;5.63;;;;;;;32.33;37.97;99376.75;5092272;28;20207;-74
2023/09/24 08:46:12;;;;;;;10.50;6.20;;;;;;;32.49;38.07;99373.00;5092539;28;20191;-74
2023/09/24 08:48:41;;;;;;;13.30;5.63;;;;;;;32.58;37.83;99373.69;5092277;28;20252;-73
2023/09/24 08:51:09;;;;;;;13.30;5.47;;;;;;;32.72;36.53;99385.19;5091923;28;20191;-74
2023/09/24 08:53:36;;;;;;;13.10;5.70;;;;;;;32.83;37.26;99375.31;5091967;28;20290;-73
2023/09/24 08:56:04;;;;;;;9.38;5.43;;;;;;;33.05;36.79;99376.78;5092156;28;20306;-73
2023/09/24 08:58:30;;;;;;;12.13;6.10;;;;;;;33.16;36.61;99364.94;5092041;28;20198;-74
2023/09/24 09:00:57;;;;;;;10.95;5.57;;;;;;;33.40;36.07;99371.59;5091893;28;20670;-74
2023/09/24 09:03:24;;;;;;;10.07;5.25;;;;;;;33.52;35.87;99363.28;5092224;28;20230;-75
2023/09/24 09:05:52;;;;;;;12.55;6.07;;;;;;;33.40;36.03;99355.06;5091886;28;20199;-72
2023/09/24 09:08:18;;;;;;;9.88;6.18;;;;;;;33.32;35.84;99356.00;5081440;28;20200;-74
2023/09/24 09:10:49;;;;;;;10.10;5.75;;;;;;;33.47;36.31;99355.28;5071596;28;20226;-71
2023/09/24 09:13:18;;;;;;;9.73;5.43;;;;;;;33.64;35.71;99349.47;5071688;28;20200;-72
2023/09/24 09:15:46;;;;;;;16.05;6.18;;;;;;;33.57;35.36;99343.75;5071730;28;20238;-72
2023/09/24 09:18:23;;;;;;;20.00;5.90;;;;;;;33.66;34.93;99352.66;5071886;28;20246;-71
2023/09/24 09:20:58;;;;;;;7.10;5.43;;;;;;;33.63;34.93;99345.13;5079083;28;20213;-70
2023/09/24 09:23:31;;;;;;;15.93;5.85;;;;;;;33.56;35.48;99342.16;5081128;28;20577;-72
2023/09/24 09:25:58;;;;;;;10.35;5.38;;;;;;;33.30;35.64;99335.09;5080237;28;20193;-71
2023/09/24 09:28:27;;;;;;;15.93;5.90;;;;;;;33.24;35.87;99333.72;5081660;28;20191;-71
2023/09/24 09:31:05;;;;;;;20.48;6.43;;;;;;;33.32;36.02;99326.53;5071719;28;20676;-71
2023/09/24 09:33:34;;;;;;;14.20;5.72;;;;;;;33.33;35.90;99328.91;5070376;28;20187;-75
2023/09/24 09:36:03;;;;;;;13.93;6.57;;;;;;;33.50;35.70;99327.00;5089669;28;20219;-71
2023/09/24 09:38:30;;;;;;;9.95;5.80;;;;;;;33.41;36.01;99331.88;5091043;28;20194;-73
2023/09/24 09:40:58;;;;;;;12.43;6.50;;;;;;;33.60;35.59;99326.53;5087373;28;20235;-75
2023/09/24 09:43:26;;;;;;;19.13;5.95;;;;;;;33.74;34.63;99327.72;5088231;28;20238;-73
2023/09/24 09:45:55;;;;;;;17.25;6.35;;;;;;;33.71;35.09;99333.13;5074321;28;20256;-73
2023/09/24 09:48:32;;;;;;;13.48;5.85;;;;;;;33.02;36.39;99331.50;5084312;28;20203;-64
2023/09/24 09:51:02;;;;;;;13.40;6.45;;;;;;;33.13;36.32;99331.81;5086249;28;20203;-65
2023/09/24 09:53:34;;;;;;;17.48;6.30;;;;;;;33.33;35.67;99326.16;5084995;28;20183;-64
2023/09/24 09:56:04;;;;;;;10.25;6.03;;;;;;;33.53;35.41;99327.13;5085203;28;20328;-64
2023/09/24 09:58:33;;;;;;;15.90;6.38;;;;;;;33.69;35.86;99321.66;5084500;28;20253;-65
2023/09/24 10:01:01;;;;;;;12.52;6.28;;;;;;;33.74;35.56;99321.38;5086526;28;20187;-67
2023/09/24 10:03:29;;;;;;;10.15;5.60;;;;;;;33.78;34.73;99316.78;5082793;28;20194;-66
2023/09/24 10:05:58;;;;;;;7.55;5.22;;;;;;;33.91;34.50;99310.06;5084505;28;20199;-64
2023/09/24 10:08:42;;;;;;;13.93;6.65;;;;;;;34.08;34.22;99316.03;5076725;28;20195;-68
2023/09/24 10:11:10;;;;;;;9.32;5.60;;;;;;;34.14;33.96;99313.81;5068147;28;20226;-65
2023/09/24 10:13:46;;;;;;;11.43;6.18;;;;;;;33.66;34.75;99309.38;5070838;28;20269;-64
2023/09/24 10:16:32;;;;;;;13.55;5.97;;;;;;;33.58;34.84;99307.56;5069849;28;20219;-65
2023/09/24 10:19:00;;;;;;;10.55;5.45;;;;;;;33.65;35.11;99307.78;5070096;28;20683;-64
2023/09/24 10:21:31;;;;;;;14.50;5.40;;;;;;;33.68;34.88;99295.25;5070715;28;20265;-66
2023/09/24 10:23:59;;;;;;;9.23;5.57;;;;;;;33.59;35.09;99300.91;5080160;28;20278;-64
2023/09/24 10:26:48;;;;;;;8.77;5.65;;;;;;;33.43;35.32;99297.31;5091798;28;20195;-64
2023/09/24 10:29:16;;;;;;;12.85;6.43;;;;;;;33.21;35.71;99292.31;5092385;28;20203;-67
2023/09/24 10:32:14;;;;;;;8.15;5.15;;;;;;;33.39;35.51;99288.13;5091469;28;20221;-64
2023/09/24 10:35:08;;;;;;;10.00;5.60;;;;;;;33.43;35.77;99280.00;5092961;28;20248;-63
2023/09/24 10:37:37;;;;;;;9.48;5.72;;;;;;;33.11;36.49;99271.59;5078601;28;20225;-64
2023/09/24 10:40:09;;;;;;;15.25;6.20;;;;;;;32.95;37.64;99267.97;5083189;28;20207;-64
2023/09/24 10:42:38;;;;;;;10.45;6.15;;;;;;;32.89;37.40;99266.63;5075903;28;20309;-65
2023/09/24 10:45:27;;;;;;;12.55;6.30;;;;;;;32.92;36.88;99271.41;5080689;28;20633;-64
2023/09/24 10:47:53;;;;;;;13.40;5.67;;;;;;;32.88;37.17;99272.47;5076249;28;20294;-63
2023/09/24 10:50:23;;;;;;;20.40;5.82;;;;;;;32.81;37.50;99262.03;5079533;28;20852;-63
2023/09/24 10:52:51;;;;;;;13.57;5.18;;;;;;;32.71;36.76;99261.69;5083595;28;20274;-63
2023/09/24 10:55:20;;;;;;;10.38;5.82;;;;;;;32.61;37.05;99256.66;5082754;28;20632;-64
2023/09/24 10:57:49;;;;;;;12.50;5.67;;;;;;;32.49;37.47;99254.72;5084373;28;20219;-63
2023/09/24 11:00:17;;;;;;;16.63;6.20;;;;;;;32.16;38.84;99245.78;5082460;28;20207;-64
2023/09/24 11:02:44;;;;;;;9.50;5.63;;;;;;;32.01;39.00;99237.41;5081265;28;20188;-67
2023/09/24 11:05:11;;;;;;;15.13;6.28;;;;;;;32.01;38.86;99240.94;5077725;28;20192;-63
2023/09/24 11:07:37;;;;;;;12.67;5.60;;;;;;;32.07;38.86;99242.34;5082488;28;20545;-64
2023/09/24 11:10:05;;;;;;;16.40;6.00;;;;;;;32.14;38.82;99228.81;5075248;28;20248;-65
2023/09/24 11:12:33;;;;;;;12.63;6.23;;;;;;;32.22;38.58;99233.38;5076628;28;20184;-66
2023/09/24 11:15:00;;;;;;;16.27;7.50;;;;;;;32.23;38.13;99226.78;5082452;28;20204;-65
2023/09/24 11:17:27;;;;;;;13.97;6.27;;;;;;;32.33;38.46;99225.50;5078266;28;20272;-65
2023/09/24 11:19:53;;;;;;;14.75;5.80;;;;;;;32.37;38.67;99227.22;5076289;28;20279;-66
2023/09/24 11:22:21;;;;;;;17.93;5.97;;;;;;;32.28;38.50;99210.03;5081467;28;20188;-64
2023/09/24 11:25:05;;;;;;;13.30;6.50;;;;;;;32.29;38.67;99217.16;5077281;28;20183;-66
2023/09/24 11:27:34;;;;;;;12.43;9.20;;;;;;;32.24;38.50;99202.81;5081854;28;20192;-64
2023/09/24 11:30:02;;;;;;;11.73;5.80;;;;;;;31.85;38.80;99190.56;5076265;28;20200;-65
2023/09/24 11:32:29;;;;;;;19.30;6.07;;;;;;;31.78;39.54;99190.34;5078020;28;20198;-64